Accueil
METAR-TAF:

METAR-TAF

Aéroports :

Aéroport d'El Bayadh

El Bayadh, Algérie

latitude: 33-43-15N, longitude: 1-05-29E, altitude: 1366 m

Observation

Le bulletin a été fait il y a 1 heure et 4 minutes, à 18:00 UTC
Vent 12 kt de nord-ouest
Température 34°C
Humidité 16%
Pression 1018 hPa
Visibilité: 8000 m
Quelques nuages à une hauteur de 3000 ft

METAR: DAOY 211800Z 31012KT 8000 FEW030 34/05 Q1018

Heure: 20:04 (19:04 UTC)


TAF: absent

Observations et prévisions météorologiques de plus de 4000 aéroports (messages METAR et TAF).

Les stations disponibles sont représentées par des disques jaunes et rouges sur la carte.

Passer la souris dessus pour voir le nom de la station.

Cliquer dessus pour voir les observations et prévisions météorologiques.

Pour changer de carte: cliquez sur les boutons verts avec une croix noire pour zoomer, sur le bouton vert avec un tiret pour effectuer un zoom arrière, ou sur les flèches vertes pour les cartes adjacentes.


METAR-TAF: